sensor_id;sensor_type;location;lat;lon;timestamp;pressure;altitude;pressure_sealevel;temperature;humidity
44481;BME280;30184;42.018;23.670;2022-07-29T00:00:24;91794.97;;;17.87;84.91
44481;BME280;30184;42.018;23.670;2022-07-29T00:02:54;91633.13;;;16.11;84.46
44481;BME280;30184;42.018;23.670;2022-07-29T00:05:23;91791.28;;;17.90;84.48
44481;BME280;30184;42.018;23.670;2022-07-29T00:07:52;91602.28;;;16.34;84.64
44481;BME280;30184;42.018;23.670;2022-07-29T00:10:21;91780.94;;;17.85;84.77
44481;BME280;30184;42.018;23.670;2022-07-29T00:12:52;91668.88;;;16.08;85.07
44481;BME280;30184;42.018;23.670;2022-07-29T00:15:21;91783.69;;;17.85;84.99
44481;BME280;30184;42.018;23.670;2022-07-29T00:17:50;91852.31;;;17.85;84.81
44481;BME280;30184;42.018;23.670;2022-07-29T00:20:19;91798.66;;;17.84;84.97
44481;BME280;30184;42.018;23.670;2022-07-29T00:22:48;91703.97;;;16.93;84.86
44481;BME280;30184;42.018;23.670;2022-07-29T00:25:17;91784.41;;;17.71;85.00
44481;BME280;30184;42.018;23.670;2022-07-29T00:27:46;91851.78;;;17.06;85.39
44481;BME280;30184;42.018;23.670;2022-07-29T00:30:16;91776.81;;;17.66;85.33
44481;BME280;30184;42.018;23.670;2022-07-29T00:32:45;91578.88;;;15.40;85.32
44481;BME280;30184;42.018;23.670;2022-07-29T00:35:14;91429.28;;;14.89;85.24
44481;BME280;30184;42.018;23.670;2022-07-29T00:38:00;91774.88;;;17.57;85.82
44481;BME280;30184;42.018;23.670;2022-07-29T00:40:29;91664.16;;;16.41;85.67
44481;BME280;30184;42.018;23.670;2022-07-29T00:42:59;91704.94;;;17.14;85.99
44481;BME280;30184;42.018;23.670;2022-07-29T00:45:30;91576.75;;;15.95;85.75
44481;BME280;30184;42.018;23.670;2022-07-29T00:48:03;91771.66;;;17.59;85.67
44481;BME280;30184;42.018;23.670;2022-07-29T00:50:33;91753.56;;;17.28;85.70
44481;BME280;30184;42.018;23.670;2022-07-29T00:53:02;91736.75;;;17.35;85.80
44481;BME280;30184;42.018;23.670;2022-07-29T00:55:32;91541.75;;;14.97;85.79
44481;BME280;30184;42.018;23.670;2022-07-29T00:58:02;91359.75;;;14.21;86.19
44481;BME280;30184;42.018;23.670;2022-07-29T01:00:33;91771.97;;;17.37;86.44
44481;BME280;30184;42.018;23.670;2022-07-29T01:03:02;91771.44;;;16.49;86.73
44481;BME280;30184;42.018;23.670;2022-07-29T01:05:31;91435.25;;;14.70;86.76
44481;BME280;30184;42.018;23.670;2022-07-29T01:08:01;91560.41;;;15.77;86.08
44481;BME280;30184;42.018;23.670;2022-07-29T01:10:31;91535.81;;;15.68;86.07
44481;BME280;30184;42.018;23.670;2022-07-29T01:13:01;91789.94;;;17.14;86.55
44481;BME280;30184;42.018;23.670;2022-07-29T01:15:31;91511.72;;;14.42;86.62
44481;BME280;30184;42.018;23.670;2022-07-29T01:18:07;91726.88;;;16.39;87.03
44481;BME280;30184;42.018;23.670;2022-07-29T01:20:57;91654.06;;;15.72;87.10
44481;BME280;30184;42.018;23.670;2022-07-29T01:23:51;91628.19;;;15.91;87.18
44481;BME280;30184;42.018;23.670;2022-07-29T01:26:41;91660.22;;;16.42;87.46
44481;BME280;30184;42.018;23.670;2022-07-29T01:29:18;91702.66;;;16.47;87.30
44481;BME280;30184;42.018;23.670;2022-07-29T01:31:54;91746.16;;;16.96;87.68
44481;BME280;30184;42.018;23.670;2022-07-29T01:34:30;91846.06;;;16.95;87.55
44481;BME280;30184;42.018;23.670;2022-07-29T01:37:09;91527.47;;;14.66;87.78
44481;BME280;30184;42.018;23.670;2022-07-29T01:39:42;91513.56;;;14.64;87.65
44481;BME280;30184;42.018;23.670;2022-07-29T01:42:16;91742.72;;;16.86;88.17
44481;BME280;30184;42.018;23.670;2022-07-29T01:44:55;91743.97;;;16.16;88.12
44481;BME280;30184;42.018;23.670;2022-07-29T01:47:31;91475.53;;;15.02;88.18
44481;BME280;30184;42.018;23.670;2022-07-29T01:50:05;91745.00;;;16.78;88.46
44481;BME280;30184;42.018;23.670;2022-07-29T01:52:39;91714.84;;;16.46;88.19
44481;BME280;30184;42.018;23.670;2022-07-29T01:55:13;91805.94;;;16.73;88.19
44481;BME280;30184;42.018;23.670;2022-07-29T01:57:46;91462.84;;;14.81;88.15
44481;BME280;30184;42.018;23.670;2022-07-29T02:00:17;91717.41;;;16.49;88.68
44481;BME280;30184;42.018;23.670;2022-07-29T02:02:48;91531.69;;;14.21;88.33
44481;BME280;30184;42.018;23.670;2022-07-29T02:05:20;91553.22;;;14.37;88.37
44481;BME280;30184;42.018;23.670;2022-07-29T02:07:52;91381.13;;;14.04;88.51
44481;BME280;30184;42.018;23.670;2022-07-29T02:10:25;91515.94;;;14.34;88.59
44481;BME280;30184;42.018;23.670;2022-07-29T02:12:57;91749.41;;;16.34;87.90
44481;BME280;30184;42.018;23.670;2022-07-29T02:15:30;91494.09;;;14.89;87.63
44481;BME280;30184;42.018;23.670;2022-07-29T02:18:02;91435.38;;;13.84;88.20
44481;BME280;30184;42.018;23.670;2022-07-29T02:20:34;91772.06;;;16.34;89.05
44481;BME280;30184;42.018;23.670;2022-07-29T02:23:04;91509.28;;;14.81;88.79
44481;BME280;30184;42.018;23.670;2022-07-29T02:25:35;91612.94;;;15.03;88.88
44481;BME280;30184;42.018;23.670;2022-07-29T02:28:05;91706.22;;;16.29;89.40
44481;BME280;30184;42.018;23.670;2022-07-29T02:30:40;91379.75;;;14.00;89.45
44481;BME280;30184;42.018;23.670;2022-07-29T02:33:13;91531.44;;;14.65;89.44
44481;BME280;30184;42.018;23.670;2022-07-29T02:35:44;91608.66;;;14.83;88.97
44481;BME280;30184;42.018;23.670;2022-07-29T02:38:15;91749.84;;;16.41;89.11
44481;BME280;30184;42.018;23.670;2022-07-29T02:41:05;91598.00;;;15.40;88.68
44481;BME280;30184;42.018;23.670;2022-07-29T02:43:36;91737.69;;;16.33;89.35
44481;BME280;30184;42.018;23.670;2022-07-29T02:46:11;91758.91;;;15.42;89.24
44481;BME280;30184;42.018;23.670;2022-07-29T02:48:46;91747.22;;;15.78;89.45
44481;BME280;30184;42.018;23.670;2022-07-29T02:51:20;91557.47;;;14.29;89.17
44481;BME280;30184;42.018;23.670;2022-07-29T02:53:53;91667.75;;;15.26;89.83
44481;BME280;30184;42.018;23.670;2022-07-29T02:56:25;91712.66;;;14.89;89.44
44481;BME280;30184;42.018;23.670;2022-07-29T02:58:58;91688.25;;;15.31;89.97
44481;BME280;30184;42.018;23.670;2022-07-29T03:01:32;91756.31;;;16.11;89.84
44481;BME280;30184;42.018;23.670;2022-07-29T03:04:04;91754.31;;;15.29;90.26
44481;BME280;30184;42.018;23.670;2022-07-29T03:06:34;91681.25;;;15.39;90.01
44481;BME280;30184;42.018;23.670;2022-07-29T03:09:06;91513.06;;;14.47;89.87
44481;BME280;30184;42.018;23.670;2022-07-29T03:11:39;91587.44;;;14.60;89.73
44481;BME280;30184;42.018;23.670;2022-07-29T03:14:09;91580.94;;;13.68;89.67
44481;BME280;30184;42.018;23.670;2022-07-29T03:16:40;91861.25;;;16.08;90.17
44481;BME280;30184;42.018;23.670;2022-07-29T03:19:10;91783.41;;;15.91;89.97
44481;BME280;30184;42.018;23.670;2022-07-29T03:21:40;91590.31;;;13.98;90.00
44481;BME280;30184;42.018;23.670;2022-07-29T03:24:09;91442.59;;;13.51;89.98
44481;BME280;30184;42.018;23.670;2022-07-29T03:26:38;91731.25;;;15.85;90.17
44481;BME280;30184;42.018;23.670;2022-07-29T03:29:07;91623.72;;;14.88;90.33
44481;BME280;30184;42.018;23.670;2022-07-29T03:31:36;91474.59;;;13.28;89.71
44481;BME280;30184;42.018;23.670;2022-07-29T03:34:07;91736.94;;;14.87;89.91
44481;BME280;30184;42.018;23.670;2022-07-29T03:36:36;91491.94;;;14.11;89.94
44481;BME280;30184;42.018;23.670;2022-07-29T03:39:05;91607.59;;;14.44;90.48
44481;BME280;30184;42.018;23.670;2022-07-29T03:41:36;91764.06;;;16.03;90.78
44481;BME280;30184;42.018;23.670;2022-07-29T03:44:09;91481.63;;;13.48;90.23
44481;BME280;30184;42.018;23.670;2022-07-29T03:46:41;91493.56;;;13.10;90.14
44481;BME280;30184;42.018;23.670;2022-07-29T03:49:14;91646.47;;;15.03;90.37
44481;BME280;30184;42.018;23.670;2022-07-29T03:51:44;91761.31;;;16.03;89.57
44481;BME280;30184;42.018;23.670;2022-07-29T03:54:14;91717.28;;;15.74;89.25
44481;BME280;30184;42.018;23.670;2022-07-29T03:56:45;91561.38;;;14.19;88.31
44481;BME280;30184;42.018;23.670;2022-07-29T03:59:15;91624.03;;;14.90;88.57
44481;BME280;30184;42.018;23.670;2022-07-29T04:01:47;91755.25;;;16.09;89.17
44481;BME280;30184;42.018;23.670;2022-07-29T04:04:19;91583.19;;;14.96;89.81
44481;BME280;30184;42.018;23.670;2022-07-29T04:06:48;91497.16;;;13.29;89.51
44481;BME280;30184;42.018;23.670;2022-07-29T04:09:17;91607.28;;;14.51;89.60
44481;BME280;30184;42.018;23.670;2022-07-29T04:11:46;91711.63;;;15.14;89.50
44481;BME280;30184;42.018;23.670;2022-07-29T04:14:16;91609.44;;;14.75;89.47
44481;BME280;30184;42.018;23.670;2022-07-29T04:16:45;91742.50;;;15.87;89.47
44481;BME280;30184;42.018;23.670;2022-07-29T04:19:14;91601.22;;;15.11;89.38
44481;BME280;30184;42.018;23.670;2022-07-29T04:21:48;91526.22;;;14.30;89.08
44481;BME280;30184;42.018;23.670;2022-07-29T04:24:18;91598.47;;;14.56;89.39
44481;BME280;30184;42.018;23.670;2022-07-29T04:26:48;91389.81;;;12.86;89.17
44481;BME280;30184;42.018;23.670;2022-07-29T04:29:17;91441.31;;;14.28;89.10
44481;BME280;30184;42.018;23.670;2022-07-29T04:31:47;91412.78;;;13.83;88.94
44481;BME280;30184;42.018;23.670;2022-07-29T04:34:16;91661.22;;;15.42;89.08
44481;BME280;30184;42.018;23.670;2022-07-29T04:36:47;91761.06;;;16.62;88.94
44481;BME280;30184;42.018;23.670;2022-07-29T04:39:16;91932.66;;;17.20;87.37
44481;BME280;30184;42.018;23.670;2022-07-29T04:41:49;91759.13;;;17.67;83.38
44481;BME280;30184;42.018;23.670;2022-07-29T04:44:21;91597.41;;;17.25;80.26
44481;BME280;30184;42.018;23.670;2022-07-29T04:46:50;91793.81;;;19.06;77.33
44481;BME280;30184;42.018;23.670;2022-07-29T04:49:19;91627.44;;;18.60;74.89
44481;BME280;30184;42.018;23.670;2022-07-29T04:51:50;91781.25;;;19.74;72.60
44481;BME280;30184;42.018;23.670;2022-07-29T04:54:19;91767.25;;;19.72;71.20
44481;BME280;30184;42.018;23.670;2022-07-29T04:56:48;91570.44;;;19.42;69.25
44481;BME280;30184;42.018;23.670;2022-07-29T04:59:17;91612.53;;;19.48;67.78
44481;BME280;30184;42.018;23.670;2022-07-29T05:01:46;91743.44;;;21.36;67.19
44481;BME280;30184;42.018;23.670;2022-07-29T05:04:15;91796.63;;;21.31;65.72
44481;BME280;30184;42.018;23.670;2022-07-29T05:06:44;91676.84;;;20.80;64.48
44481;BME280;30184;42.018;23.670;2022-07-29T05:09:15;91620.50;;;20.92;64.58
44481;BME280;30184;42.018;23.670;2022-07-29T05:11:44;91508.28;;;19.87;64.37
44481;BME280;30184;42.018;23.670;2022-07-29T05:14:13;91741.44;;;21.84;63.95
44481;BME280;30184;42.018;23.670;2022-07-29T05:16:42;91746.66;;;22.47;63.98
44481;BME280;30184;42.018;23.670;2022-07-29T05:19:12;91740.66;;;22.71;62.86
44481;BME280;30184;42.018;23.670;2022-07-29T05:21:41;91712.00;;;22.68;62.20
44481;BME280;30184;42.018;23.670;2022-07-29T05:24:10;91582.13;;;21.48;62.66
44481;BME280;30184;42.018;23.670;2022-07-29T05:26:42;91616.69;;;22.25;61.95
44481;BME280;30184;42.018;23.670;2022-07-29T05:29:11;91514.91;;;22.18;60.19
44481;BME280;30184;42.018;23.670;2022-07-29T05:31:40;91757.06;;;23.14;59.83
44481;BME280;30184;42.018;23.670;2022-07-29T05:34:09;91452.88;;;21.63;58.49
44481;BME280;30184;42.018;23.670;2022-07-29T05:36:38;91587.78;;;22.04;58.53
44481;BME280;30184;42.018;23.670;2022-07-29T05:39:07;91700.94;;;22.91;58.88
44481;BME280;30184;42.018;23.670;2022-07-29T05:41:36;91705.91;;;23.54;58.73
44481;BME280;30184;42.018;23.670;2022-07-29T05:44:07;91636.16;;;23.50;59.28
44481;BME280;30184;42.018;23.670;2022-07-29T05:46:39;91472.44;;;21.43;59.25
44481;BME280;30184;42.018;23.670;2022-07-29T05:49:09;91495.31;;;21.49;59.97
44481;BME280;30184;42.018;23.670;2022-07-29T05:51:38;91778.41;;;23.69;60.98
44481;BME280;30184;42.018;23.670;2022-07-29T05:54:10;91529.75;;;22.26;60.33
44481;BME280;30184;42.018;23.670;2022-07-29T05:56:39;91512.88;;;21.63;61.25
44481;BME280;30184;42.018;23.670;2022-07-29T05:59:09;91708.25;;;23.05;62.72
44481;BME280;30184;42.018;23.670;2022-07-29T06:01:39;91459.78;;;20.97;62.20
44481;BME280;30184;42.018;23.670;2022-07-29T06:04:09;91615.44;;;22.48;62.06
44481;BME280;30184;42.018;23.670;2022-07-29T06:06:38;91635.28;;;22.19;61.80
44481;BME280;30184;42.018;23.670;2022-07-29T06:09:07;91615.19;;;22.46;63.54
44481;BME280;30184;42.018;23.670;2022-07-29T06:11:36;91435.97;;;21.05;62.78
44481;BME280;30184;42.018;23.670;2022-07-29T06:14:05;91671.75;;;22.67;63.72
44481;BME280;30184;42.018;23.670;2022-07-29T06:16:36;91589.03;;;22.25;62.91
44481;BME280;30184;42.018;23.670;2022-07-29T06:19:05;91695.59;;;23.26;63.45
44481;BME280;30184;42.018;23.670;2022-07-29T06:21:34;91499.13;;;22.02;62.64
44481;BME280;30184;42.018;23.670;2022-07-29T06:24:04;91417.47;;;21.28;62.57
44481;BME280;30184;42.018;23.670;2022-07-29T06:26:34;91642.84;;;22.96;62.42
44481;BME280;30184;42.018;23.670;2022-07-29T06:29:05;91718.38;;;23.88;61.48
44481;BME280;30184;42.018;23.670;2022-07-29T06:31:36;91722.13;;;23.96;60.53
44481;BME280;30184;42.018;23.670;2022-07-29T06:34:05;91707.47;;;24.07;61.38
44481;BME280;30184;42.018;23.670;2022-07-29T06:36:35;91715.19;;;24.19;60.38
44481;BME280;30184;42.018;23.670;2022-07-29T06:39:05;91486.91;;;22.71;60.34
44481;BME280;30184;42.018;23.670;2022-07-29T06:41:35;91407.69;;;22.05;56.44
44481;BME280;30184;42.018;23.670;2022-07-29T06:44:09;91651.69;;;23.69;58.26
44481;BME280;30184;42.018;23.670;2022-07-29T06:46:40;91474.69;;;23.08;56.21
44481;BME280;30184;42.018;23.670;2022-07-29T06:49:09;91550.50;;;23.57;56.34
44481;BME280;30184;42.018;23.670;2022-07-29T06:51:38;91592.72;;;24.15;53.66
44481;BME280;30184;42.018;23.670;2022-07-29T06:54:07;91744.22;;;24.65;50.74
44481;BME280;30184;42.018;23.670;2022-07-29T06:56:36;91446.84;;;23.41;53.89
44481;BME280;30184;42.018;23.670;2022-07-29T06:59:10;91643.84;;;24.91;49.90
44481;BME280;30184;42.018;23.670;2022-07-29T07:01:42;91787.31;;;25.13;49.62
44481;BME280;30184;42.018;23.670;2022-07-29T07:04:12;91663.25;;;25.21;49.98
44481;BME280;30184;42.018;23.670;2022-07-29T07:06:42;91435.97;;;23.85;51.14
44481;BME280;30184;42.018;23.670;2022-07-29T07:09:11;91551.72;;;24.38;48.00
44481;BME280;30184;42.018;23.670;2022-07-29T07:11:40;91628.22;;;25.18;46.86
44481;BME280;30184;42.018;23.670;2022-07-29T07:14:09;91478.44;;;24.28;50.06
44481;BME280;30184;42.018;23.670;2022-07-29T07:16:39;91672.28;;;26.00;46.40
44481;BME280;30184;42.018;23.670;2022-07-29T07:19:09;91597.31;;;25.27;44.40
44481;BME280;30184;42.018;23.670;2022-07-29T07:21:39;91599.38;;;25.45;46.45
44481;BME280;30184;42.018;23.670;2022-07-29T07:24:08;91384.03;;;24.15;45.55
44481;BME280;30184;42.018;23.670;2022-07-29T07:26:37;91521.81;;;25.28;45.35
44481;BME280;30184;42.018;23.670;2022-07-29T07:29:07;91763.00;;;26.65;43.93
44481;BME280;30184;42.018;23.670;2022-07-29T07:31:36;91695.56;;;26.72;44.52
44481;BME280;30184;42.018;23.670;2022-07-29T07:34:05;91397.13;;;24.44;45.00
44481;BME280;30184;42.018;23.670;2022-07-29T07:36:36;91598.75;;;26.14;44.14
44481;BME280;30184;42.018;23.670;2022-07-29T07:39:05;91482.91;;;25.85;44.29
44481;BME280;30184;42.018;23.670;2022-07-29T07:41:34;91619.34;;;26.24;43.07
44481;BME280;30184;42.018;23.670;2022-07-29T07:44:04;91529.69;;;25.99;43.23
44481;BME280;30184;42.018;23.670;2022-07-29T07:46:33;91466.03;;;25.96;42.73
44481;BME280;30184;42.018;23.670;2022-07-29T07:49:02;91660.16;;;27.18;42.89
44481;BME280;30184;42.018;23.670;2022-07-29T07:51:32;91385.72;;;24.48;42.45
44481;BME280;30184;42.018;23.670;2022-07-29T07:54:02;91661.44;;;27.17;43.41
44481;BME280;30184;42.018;23.670;2022-07-29T07:56:32;91471.44;;;25.56;42.57
44481;BME280;30184;42.018;23.670;2022-07-29T07:59:01;91410.91;;;25.49;42.85
44481;BME280;30184;42.018;23.670;2022-07-29T08:01:30;91610.38;;;26.82;42.46
44481;BME280;30184;42.018;23.670;2022-07-29T08:04:01;91427.97;;;25.21;44.01
44481;BME280;30184;42.018;23.670;2022-07-29T08:06:30;91654.47;;;27.68;42.84
44481;BME280;30184;42.018;23.670;2022-07-29T08:08:59;91551.34;;;26.70;41.74
44481;BME280;30184;42.018;23.670;2022-07-29T08:11:41;91598.47;;;27.53;42.06
44481;BME280;30184;42.018;23.670;2022-07-29T08:14:10;91580.16;;;27.31;40.86
44481;BME280;30184;42.018;23.670;2022-07-29T08:16:39;91488.19;;;26.65;41.23
44481;BME280;30184;42.018;23.670;2022-07-29T08:19:09;91468.38;;;26.82;41.18
44481;BME280;30184;42.018;23.670;2022-07-29T08:21:39;91622.13;;;28.12;40.54
44481;BME280;30184;42.018;23.670;2022-07-29T08:24:09;91495.84;;;27.78;39.72
44481;BME280;30184;42.018;23.670;2022-07-29T08:26:57;91574.31;;;28.29;39.05
44481;BME280;30184;42.018;23.670;2022-07-29T08:29:26;91353.53;;;27.16;39.17
44481;BME280;30184;42.018;23.670;2022-07-29T08:31:55;91362.34;;;27.06;39.41
44481;BME280;30184;42.018;23.670;2022-07-29T08:34:24;91470.19;;;27.32;39.31
44481;BME280;30184;42.018;23.670;2022-07-29T08:36:53;91512.19;;;28.49;37.65
44481;BME280;30184;42.018;23.670;2022-07-29T08:39:23;91386.38;;;26.96;37.08
44481;BME280;30184;42.018;23.670;2022-07-29T08:41:53;91538.22;;;28.44;36.20
44481;BME280;30184;42.018;23.670;2022-07-29T08:44:24;91393.84;;;27.01;37.07
44481;BME280;30184;42.018;23.670;2022-07-29T08:46:54;91492.59;;;28.21;36.96
44481;BME280;30184;42.018;23.670;2022-07-29T08:49:23;91386.88;;;27.76;35.56
44481;BME280;30184;42.018;23.670;2022-07-29T08:51:53;91466.19;;;28.22;35.61
44481;BME280;30184;42.018;23.670;2022-07-29T08:54:23;91627.72;;;29.01;34.76
44481;BME280;30184;42.018;23.670;2022-07-29T08:56:53;91471.03;;;28.08;36.67
44481;BME280;30184;42.018;23.670;2022-07-29T08:59:25;91577.88;;;28.30;35.59
44481;BME280;30184;42.018;23.670;2022-07-29T09:01:57;91586.28;;;28.71;34.80
44481;BME280;30184;42.018;23.670;2022-07-29T09:04:29;91285.91;;;26.81;34.77
44481;BME280;30184;42.018;23.670;2022-07-29T09:07:00;91501.72;;;27.88;34.58
44481;BME280;30184;42.018;23.670;2022-07-29T09:09:33;91372.09;;;27.00;34.39
44481;BME280;30184;42.018;23.670;2022-07-29T09:12:03;91503.34;;;28.38;35.70
44481;BME280;30184;42.018;23.670;2022-07-29T09:14:35;91536.31;;;28.05;34.17
44481;BME280;30184;42.018;23.670;2022-07-29T09:17:04;91259.56;;;26.35;32.62
44481;BME280;30184;42.018;23.670;2022-07-29T09:19:36;91661.50;;;29.31;34.36
44481;BME280;30184;42.018;23.670;2022-07-29T09:22:06;91376.16;;;26.99;33.43
44481;BME280;30184;42.018;23.670;2022-07-29T09:24:40;91307.88;;;26.71;33.25
44481;BME280;30184;42.018;23.670;2022-07-29T09:27:11;91449.97;;;27.66;33.51
44481;BME280;30184;42.018;23.670;2022-07-29T09:29:55;91491.53;;;28.11;34.63
44481;BME280;30184;42.018;23.670;2022-07-29T09:32:25;91563.22;;;28.91;32.40
44481;BME280;30184;42.018;23.670;2022-07-29T09:35:18;91610.81;;;29.27;32.88
44481;BME280;30184;42.018;23.670;2022-07-29T09:37:48;91210.22;;;26.49;33.38
44481;BME280;30184;42.018;23.670;2022-07-29T09:40:19;91614.63;;;29.38;33.33
44481;BME280;30184;42.018;23.670;2022-07-29T09:42:49;91430.03;;;27.96;33.09
44481;BME280;30184;42.018;23.670;2022-07-29T09:45:30;91626.47;;;29.51;32.07
44481;BME280;30184;42.018;23.670;2022-07-29T09:48:13;91605.78;;;29.54;33.06
44481;BME280;30184;42.018;23.670;2022-07-29T09:50:46;91602.50;;;29.63;33.15
44481;BME280;30184;42.018;23.670;2022-07-29T09:53:30;91273.16;;;27.20;33.72
44481;BME280;30184;42.018;23.670;2022-07-29T09:56:00;91497.16;;;28.32;33.21
44481;BME280;30184;42.018;23.670;2022-07-29T09:58:29;91555.25;;;28.54;32.34
44481;BME280;30184;42.018;23.670;2022-07-29T10:01:02;91544.53;;;29.36;33.16
44481;BME280;30184;42.018;23.670;2022-07-29T10:03:32;91481.06;;;28.45;32.65
44481;BME280;30184;42.018;23.670;2022-07-29T10:06:09;91278.59;;;27.04;31.96
44481;BME280;30184;42.018;23.670;2022-07-29T10:08:38;91199.66;;;27.02;33.50
44481;BME280;30184;42.018;23.670;2022-07-29T10:11:10;91690.81;;;29.59;33.13
44481;BME280;30184;42.018;23.670;2022-07-29T10:13:40;91482.00;;;29.18;32.11
44481;BME280;30184;42.018;23.670;2022-07-29T10:16:11;91581.84;;;30.02;32.80
44481;BME280;30184;42.018;23.670;2022-07-29T10:18:41;91169.34;;;27.19;31.50
44481;BME280;30184;42.018;23.670;2022-07-29T10:21:12;91328.88;;;27.74;32.38
44481;BME280;30184;42.018;23.670;2022-07-29T10:23:43;91594.38;;;30.17;32.59
44481;BME280;30184;42.018;23.670;2022-07-29T10:26:15;91215.97;;;27.60;32.50
44481;BME280;30184;42.018;23.670;2022-07-29T10:28:45;91429.88;;;28.64;31.00
44481;BME280;30184;42.018;23.670;2022-07-29T10:31:22;91583.91;;;29.74;30.72
44481;BME280;30184;42.018;23.670;2022-07-29T10:34:01;91470.81;;;29.46;31.16
44481;BME280;30184;42.018;23.670;2022-07-29T10:36:44;91295.63;;;28.54;30.92
44481;BME280;30184;42.018;23.670;2022-07-29T10:39:29;91178.44;;;27.90;31.01
44481;BME280;30184;42.018;23.670;2022-07-29T10:42:11;91349.84;;;29.02;31.24
44481;BME280;30184;42.018;23.670;2022-07-29T10:44:44;91321.97;;;29.17;29.08
44481;BME280;30184;42.018;23.670;2022-07-29T10:47:21;91479.91;;;29.90;29.05
44481;BME280;30184;42.018;23.670;2022-07-29T10:49:58;91298.66;;;28.71;29.25
44481;BME280;30184;42.018;23.670;2022-07-29T10:52:53;91553.09;;;30.99;30.52
44481;BME280;30184;42.018;23.670;2022-07-29T10:55:34;91529.34;;;30.69;29.36
44481;BME280;30184;42.018;23.670;2022-07-29T10:58:16;91441.94;;;30.25;27.57
44481;BME280;30184;42.018;23.670;2022-07-29T11:00:47;91155.31;;;28.61;27.89
44481;BME280;30184;42.018;23.670;2022-07-29T11:03:45;91429.41;;;30.03;28.25
44481;BME280;30184;42.018;23.670;2022-07-29T11:06:18;91228.81;;;29.30;29.19
44481;BME280;30184;42.018;23.670;2022-07-29T11:09:16;91530.84;;;31.39;28.69
44481;BME280;30184;42.018;23.670;2022-07-29T11:11:47;91344.91;;;30.13;29.08
44481;BME280;30184;42.018;23.670;2022-07-29T11:14:16;91194.34;;;29.05;28.72
44481;BME280;30184;42.018;23.670;2022-07-29T11:17:03;91368.78;;;30.14;28.08
44481;BME280;30184;42.018;23.670;2022-07-29T11:19:36;91584.66;;;31.68;29.06
44481;BME280;30184;42.018;23.670;2022-07-29T11:22:10;91525.56;;;31.66;28.62
44481;BME280;30184;42.018;23.670;2022-07-29T11:24:40;91504.53;;;30.89;28.47
44481;BME280;30184;42.018;23.670;2022-07-29T11:27:15;91385.75;;;30.31;27.62
44481;BME280;30184;42.018;23.670;2022-07-29T11:29:49;91531.25;;;31.12;28.14
44481;BME280;30184;42.018;23.670;2022-07-29T11:32:19;91510.91;;;31.12;27.33
44481;BME280;30184;42.018;23.670;2022-07-29T11:35:11;91412.09;;;30.28;28.88
44481;BME280;30184;42.018;23.670;2022-07-29T11:37:41;91507.34;;;30.66;28.09
44481;BME280;30184;42.018;23.670;2022-07-29T11:40:13;91538.91;;;30.82;28.51
44481;BME280;30184;42.018;23.670;2022-07-29T11:42:46;91228.19;;;28.86;29.60
44481;BME280;30184;42.018;23.670;2022-07-29T11:45:26;91549.91;;;30.87;28.62
44481;BME280;30184;42.018;23.670;2022-07-29T11:48:00;91461.88;;;30.14;29.09
44481;BME280;30184;42.018;23.670;2022-07-29T11:50:35;91519.22;;;30.28;28.69
44481;BME280;30184;42.018;23.670;2022-07-29T11:53:11;91403.91;;;29.12;29.58
44481;BME280;30184;42.018;23.670;2022-07-29T11:55:41;91539.19;;;30.40;28.66
44481;BME280;30184;42.018;23.670;2022-07-29T11:58:11;91306.38;;;28.21;29.63
44481;BME280;30184;42.018;23.670;2022-07-29T12:00:40;91551.34;;;30.50;29.10
44481;BME280;30184;42.018;23.670;2022-07-29T12:03:10;91529.56;;;30.64;29.32
44481;BME280;30184;42.018;23.670;2022-07-29T12:05:44;91333.16;;;29.17;28.59
44481;BME280;30184;42.018;23.670;2022-07-29T12:08:15;91378.72;;;29.48;28.86
44481;BME280;30184;42.018;23.670;2022-07-29T12:10:48;91346.53;;;29.70;29.68
44481;BME280;30184;42.018;23.670;2022-07-29T12:13:19;91515.91;;;30.60;29.05
44481;BME280;30184;42.018;23.670;2022-07-29T12:15:57;91277.97;;;29.10;27.93
44481;BME280;30184;42.018;23.670;2022-07-29T12:18:30;91222.72;;;28.29;28.20
44481;BME280;30184;42.018;23.670;2022-07-29T12:21:04;91532.34;;;30.87;28.70
44481;BME280;30184;42.018;23.670;2022-07-29T12:23:37;91489.56;;;30.48;28.21
44481;BME280;30184;42.018;23.670;2022-07-29T12:26:26;91265.47;;;28.52;29.11
44481;BME280;30184;42.018;23.670;2022-07-29T12:28:56;91199.66;;;28.29;29.29
44481;BME280;30184;42.018;23.670;2022-07-29T12:31:29;91091.19;;;27.81;29.43
44481;BME280;30184;42.018;23.670;2022-07-29T12:34:00;91186.75;;;28.18;29.39
44481;BME280;30184;42.018;23.670;2022-07-29T12:36:37;91617.94;;;31.03;29.03
44481;BME280;30184;42.018;23.670;2022-07-29T12:39:08;91640.91;;;30.94;28.80
44481;BME280;30184;42.018;23.670;2022-07-29T12:41:43;91657.13;;;30.88;29.54
44481;BME280;30184;42.018;23.670;2022-07-29T12:44:13;91510.88;;;30.82;29.44
44481;BME280;30184;42.018;23.670;2022-07-29T12:46:45;91148.38;;;28.03;29.64
44481;BME280;30184;42.018;23.670;2022-07-29T12:49:32;91363.50;;;29.21;29.61
44481;BME280;30184;42.018;23.670;2022-07-29T12:52:32;91513.69;;;30.66;30.45
44481;BME280;30184;42.018;23.670;2022-07-29T12:55:03;91600.78;;;30.40;30.76
44481;BME280;30184;42.018;23.670;2022-07-29T12:57:46;91414.03;;;28.87;31.16
44481;BME280;30184;42.018;23.670;2022-07-29T13:00:28;91095.63;;;27.48;30.67
44481;BME280;30184;42.018;23.670;2022-07-29T13:03:03;91175.72;;;28.05;30.44
44481;BME280;30184;42.018;23.670;2022-07-29T13:05:42;91189.22;;;27.93;30.58
44481;BME280;30184;42.018;23.670;2022-07-29T13:08:20;91166.22;;;27.72;30.56
44481;BME280;30184;42.018;23.670;2022-07-29T13:10:50;91349.94;;;29.32;31.28
44481;BME280;30184;42.018;23.670;2022-07-29T13:13:21;91657.44;;;30.54;30.96
44481;BME280;30184;42.018;23.670;2022-07-29T13:16:06;91194.06;;;27.64;30.61